createdAt,value
2019-02-09T00:14:31.978Z,55.7
2019-02-09T00:29:46.728Z,56.2
2019-02-09T00:44:57.614Z,53.7
2019-02-09T01:00:09.321Z,53.6
2019-02-09T01:15:18.120Z,52.5
2019-02-09T01:30:33.735Z,51.1
2019-02-09T01:45:46.090Z,52.7
2019-02-09T02:00:58.346Z,50.3
2019-02-09T02:16:01.219Z,51.4
2019-02-09T02:31:22.641Z,50
2019-02-09T02:46:34.799Z,48.2
2019-02-09T03:01:47.061Z,47
2019-02-09T03:16:59.314Z,48.9
2019-02-09T03:32:11.299Z,50
2019-02-09T03:47:23.596Z,52
2019-02-09T04:02:35.639Z,54
2019-02-09T04:17:49.342Z,55.2
2019-02-09T04:32:52.019Z,56.2
2019-02-09T04:48:11.421Z,55.7
2019-02-09T05:03:23.317Z,54.4
2019-02-09T05:18:35.438Z,53
2019-02-09T05:33:47.542Z,51.8
2019-02-09T05:48:59.654Z,52.5
2019-02-09T06:04:11.839Z,52.1
2019-02-09T06:19:24.117Z,52.3
2019-02-09T06:34:36.326Z,53.3
2019-02-09T06:49:42.766Z,55.4
2019-02-09T07:05:00.958Z,55.9
2019-02-09T07:20:13.369Z,56.3
2019-02-09T07:35:25.815Z,56.2
2019-02-09T07:50:38.450Z,57.2
2019-02-09T08:05:51.348Z,56.8
2019-02-09T08:21:04.533Z,54.6
2019-02-09T08:36:20.599Z,53
2019-02-09T08:51:31.311Z,50.3
2019-02-09T09:06:40.205Z,48.7
2019-02-09T09:21:58.805Z,47.6
2019-02-09T09:37:12.641Z,47
2019-02-09T09:52:26.741Z,44.9
2019-02-09T10:07:29.309Z,43
2019-02-09T10:22:55.123Z,41
2019-02-09T10:38:09.584Z,41
2019-02-09T10:53:24.150Z,39.2
2019-02-09T11:08:39.591Z,36
2019-02-09T11:23:46.915Z,36
2019-02-09T11:39:09.876Z,38.2
2019-02-09T11:54:24.728Z,38.2
2019-02-09T12:09:39.726Z,36.3
2019-02-09T12:24:54.707Z,36.7
2019-02-09T12:40:05.860Z,34.9
2019-02-09T12:55:24.776Z,33.2
2019-02-09T13:10:40.427Z,32.1
2019-02-09T13:25:55.503Z,33.2
2019-02-09T13:40:57.360Z,32.5
2019-02-09T13:56:25.697Z,33.5
2019-02-09T14:11:41.957Z,34
2019-02-09T14:26:57.247Z,34.1
2019-02-09T14:42:12.863Z,33.6
2019-02-09T14:57:16.298Z,35.2
2019-02-09T15:12:42.818Z,35.6
2019-02-09T15:27:58.183Z,34.9
2019-02-09T15:43:13.186Z,38.4
2019-02-09T15:58:27.303Z,42.1
2019-02-09T16:13:33.372Z,43.4
2019-02-09T16:28:55.376Z,44.7
2019-02-09T16:44:08.894Z,47.2
2019-02-09T16:59:22.470Z,48
2019-02-09T17:14:36.114Z,49.2
2019-02-09T17:29:47.587Z,48.3
2019-02-09T17:45:03.410Z,49
2019-02-09T18:00:17.111Z,48.9
2019-02-09T18:15:30.875Z,50.1
2019-02-09T18:30:35.250Z,50.5
2019-02-09T18:45:58.258Z,50.8
2019-02-09T19:01:11.617Z,49
2019-02-09T19:16:25.195Z,50
2019-02-09T19:31:38.747Z,47.9
2019-02-09T19:46:49.774Z,48
2019-02-09T20:02:06.910Z,47.7
2019-02-09T20:17:19.643Z,48.5
2019-02-09T20:32:33.247Z,49
2019-02-09T20:47:36.813Z,49.2
2019-02-09T21:03:00.329Z,50.6
2019-02-09T21:18:14.368Z,50
2019-02-09T21:33:27.360Z,51.4
2019-02-09T21:48:40.796Z,52.3
2019-02-09T22:03:50.128Z,53.8
2019-02-09T22:19:07.555Z,53.9
2019-02-09T22:34:20.878Z,55.5
2019-02-09T22:49:34.176Z,56.1
2019-02-09T23:04:36.625Z,54.8
2019-02-09T23:20:00.623Z,55.2
2019-02-09T23:35:13.835Z,54.5
2019-02-09T23:50:27.137Z,54.3
